sensor_id;sensor_type;location;lat;lon;timestamp;P1;durP1;ratioP1;P2;durP2;ratioP2
50301;SDS011;36550;50.472;19.744;2023-04-28T00:01:01;48.60;;;20.50;;
50301;SDS011;36550;50.472;19.744;2023-04-28T00:03:45;57.60;;;23.40;;
50301;SDS011;36550;50.472;19.744;2023-04-28T00:06:31;48.30;;;20.80;;
50301;SDS011;36550;50.472;19.744;2023-04-28T00:09:15;39.90;;;18.80;;
50301;SDS011;36550;50.472;19.744;2023-04-28T00:11:59;39.70;;;17.40;;
50301;SDS011;36550;50.472;19.744;2023-04-28T00:14:43;40.50;;;17.70;;
50301;SDS011;36550;50.472;19.744;2023-04-28T00:17:27;38.00;;;16.50;;
50301;SDS011;36550;50.472;19.744;2023-04-28T00:20:11;39.20;;;16.90;;
50301;SDS011;36550;50.472;19.744;2023-04-28T00:22:55;35.00;;;16.70;;
50301;SDS011;36550;50.472;19.744;2023-04-28T00:25:39;39.40;;;17.70;;
50301;SDS011;36550;50.472;19.744;2023-04-28T00:28:23;36.20;;;16.40;;
50301;SDS011;36550;50.472;19.744;2023-04-28T00:31:11;34.50;;;15.80;;
50301;SDS011;36550;50.472;19.744;2023-04-28T00:33:57;38.40;;;17.60;;
50301;SDS011;36550;50.472;19.744;2023-04-28T00:36:41;35.50;;;17.40;;
50301;SDS011;36550;50.472;19.744;2023-04-28T00:39:25;49.40;;;20.90;;
50301;SDS011;36550;50.472;19.744;2023-04-28T00:42:10;59.30;;;25.20;;
50301;SDS011;36550;50.472;19.744;2023-04-28T00:44:53;35.20;;;17.50;;
50301;SDS011;36550;50.472;19.744;2023-04-28T00:47:38;33.70;;;17.20;;
50301;SDS011;36550;50.472;19.744;2023-04-28T00:50:22;39.20;;;16.40;;
50301;SDS011;36550;50.472;19.744;2023-04-28T00:53:07;39.00;;;15.70;;
50301;SDS011;36550;50.472;19.744;2023-04-28T00:55:51;37.60;;;16.50;;
50301;SDS011;36550;50.472;19.744;2023-04-28T00:58:36;33.20;;;16.70;;
50301;SDS011;36550;50.472;19.744;2023-04-28T01:01:20;42.00;;;18.90;;
50301;SDS011;36550;50.472;19.744;2023-04-28T01:04:05;39.90;;;17.90;;
50301;SDS011;36550;50.472;19.744;2023-04-28T01:06:49;36.20;;;18.70;;
50301;SDS011;36550;50.472;19.744;2023-04-28T01:09:35;41.10;;;19.20;;
50301;SDS011;36550;50.472;19.744;2023-04-28T01:12:19;44.50;;;21.90;;
50301;SDS011;36550;50.472;19.744;2023-04-28T01:15:03;42.70;;;21.60;;
50301;SDS011;36550;50.472;19.744;2023-04-28T01:17:47;49.60;;;21.90;;
50301;SDS011;36550;50.472;19.744;2023-04-28T01:20:31;46.90;;;20.00;;
50301;SDS011;36550;50.472;19.744;2023-04-28T01:23:16;37.00;;;18.20;;
50301;SDS011;36550;50.472;19.744;2023-04-28T01:26:00;45.20;;;18.80;;
50301;SDS011;36550;50.472;19.744;2023-04-28T01:28:44;33.10;;;15.90;;
50301;SDS011;36550;50.472;19.744;2023-04-28T01:31:28;31.10;;;15.20;;
50301;SDS011;36550;50.472;19.744;2023-04-28T01:34:13;39.40;;;17.20;;
50301;SDS011;36550;50.472;19.744;2023-04-28T01:36:57;56.50;;;22.30;;
50301;SDS011;36550;50.472;19.744;2023-04-28T01:39:41;68.90;;;27.30;;
50301;SDS011;36550;50.472;19.744;2023-04-28T01:42:25;126.50;;;46.00;;
50301;SDS011;36550;50.472;19.744;2023-04-28T01:45:09;47.20;;;22.00;;
50301;SDS011;36550;50.472;19.744;2023-04-28T01:47:53;48.90;;;20.30;;
50301;SDS011;36550;50.472;19.744;2023-04-28T01:50:37;43.70;;;19.60;;
50301;SDS011;36550;50.472;19.744;2023-04-28T01:53:21;45.80;;;19.80;;
50301;SDS011;36550;50.472;19.744;2023-04-28T01:56:05;44.60;;;19.80;;
50301;SDS011;36550;50.472;19.744;2023-04-28T01:58:49;37.90;;;18.80;;
50301;SDS011;36550;50.472;19.744;2023-04-28T02:01:34;34.20;;;15.00;;
50301;SDS011;36550;50.472;19.744;2023-04-28T02:04:18;24.90;;;11.70;;
50301;SDS011;36550;50.472;19.744;2023-04-28T02:07:02;32.50;;;15.50;;
50301;SDS011;36550;50.472;19.744;2023-04-28T02:09:45;31.00;;;15.60;;
50301;SDS011;36550;50.472;19.744;2023-04-28T02:12:29;31.00;;;15.40;;
50301;SDS011;36550;50.472;19.744;2023-04-28T02:15:13;30.20;;;15.40;;
50301;SDS011;36550;50.472;19.744;2023-04-28T02:17:57;27.40;;;14.10;;
50301;SDS011;36550;50.472;19.744;2023-04-28T02:20:41;32.90;;;16.60;;
50301;SDS011;36550;50.472;19.744;2023-04-28T02:23:25;35.40;;;16.10;;
50301;SDS011;36550;50.472;19.744;2023-04-28T02:26:09;29.80;;;15.70;;
50301;SDS011;36550;50.472;19.744;2023-04-28T02:28:53;32.50;;;15.50;;
50301;SDS011;36550;50.472;19.744;2023-04-28T02:31:37;32.60;;;16.00;;
50301;SDS011;36550;50.472;19.744;2023-04-28T02:34:21;32.10;;;16.70;;
50301;SDS011;36550;50.472;19.744;2023-04-28T02:37:05;29.40;;;16.40;;
50301;SDS011;36550;50.472;19.744;2023-04-28T02:39:49;34.20;;;16.70;;
50301;SDS011;36550;50.472;19.744;2023-04-28T02:42:33;35.50;;;17.00;;
50301;SDS011;36550;50.472;19.744;2023-04-28T02:45:18;33.80;;;17.10;;
50301;SDS011;36550;50.472;19.744;2023-04-28T02:48:02;36.00;;;17.90;;
50301;SDS011;36550;50.472;19.744;2023-04-28T02:50:47;36.60;;;18.40;;
50301;SDS011;36550;50.472;19.744;2023-04-28T02:53:31;38.20;;;21.10;;
50301;SDS011;36550;50.472;19.744;2023-04-28T02:56:15;42.40;;;19.90;;
50301;SDS011;36550;50.472;19.744;2023-04-28T02:58:59;45.70;;;22.20;;
50301;SDS011;36550;50.472;19.744;2023-04-28T03:01:43;32.50;;;15.60;;
50301;SDS011;36550;50.472;19.744;2023-04-28T03:04:27;28.10;;;14.00;;
50301;SDS011;36550;50.472;19.744;2023-04-28T03:07:11;30.20;;;14.30;;
50301;SDS011;36550;50.472;19.744;2023-04-28T03:09:55;35.80;;;17.70;;
50301;SDS011;36550;50.472;19.744;2023-04-28T03:12:39;38.60;;;18.60;;
50301;SDS011;36550;50.472;19.744;2023-04-28T03:15:22;41.80;;;19.20;;
50301;SDS011;36550;50.472;19.744;2023-04-28T03:18:06;39.70;;;19.70;;
50301;SDS011;36550;50.472;19.744;2023-04-28T03:20:50;44.30;;;23.20;;
50301;SDS011;36550;50.472;19.744;2023-04-28T03:23:34;39.00;;;17.80;;
50301;SDS011;36550;50.472;19.744;2023-04-28T03:26:19;45.30;;;19.60;;
50301;SDS011;36550;50.472;19.744;2023-04-28T03:29:03;38.80;;;18.90;;
50301;SDS011;36550;50.472;19.744;2023-04-28T03:31:47;37.80;;;19.40;;
50301;SDS011;36550;50.472;19.744;2023-04-28T03:34:31;36.60;;;18.40;;
50301;SDS011;36550;50.472;19.744;2023-04-28T03:37:15;35.40;;;17.40;;
50301;SDS011;36550;50.472;19.744;2023-04-28T03:39:59;40.70;;;19.40;;
50301;SDS011;36550;50.472;19.744;2023-04-28T03:42:44;40.90;;;18.50;;
50301;SDS011;36550;50.472;19.744;2023-04-28T03:45:27;36.70;;;19.20;;
50301;SDS011;36550;50.472;19.744;2023-04-28T03:48:11;32.70;;;17.90;;
50301;SDS011;36550;50.472;19.744;2023-04-28T03:50:55;38.60;;;17.40;;
50301;SDS011;36550;50.472;19.744;2023-04-28T03:53:39;35.90;;;18.10;;
50301;SDS011;36550;50.472;19.744;2023-04-28T03:56:23;41.80;;;18.00;;
50301;SDS011;36550;50.472;19.744;2023-04-28T03:59:07;38.60;;;18.60;;
50301;SDS011;36550;50.472;19.744;2023-04-28T04:01:54;37.00;;;19.40;;
50301;SDS011;36550;50.472;19.744;2023-04-28T04:04:38;37.40;;;19.30;;
50301;SDS011;36550;50.472;19.744;2023-04-28T04:07:22;43.30;;;21.00;;
50301;SDS011;36550;50.472;19.744;2023-04-28T04:10:06;41.10;;;18.90;;
50301;SDS011;36550;50.472;19.744;2023-04-28T04:12:50;43.80;;;19.40;;
50301;SDS011;36550;50.472;19.744;2023-04-28T04:15:35;37.90;;;17.70;;
50301;SDS011;36550;50.472;19.744;2023-04-28T04:18:19;28.90;;;15.60;;
50301;SDS011;36550;50.472;19.744;2023-04-28T04:21:03;27.20;;;12.80;;
50301;SDS011;36550;50.472;19.744;2023-04-28T04:23:47;25.90;;;12.50;;
50301;SDS011;36550;50.472;19.744;2023-04-28T04:26:31;20.20;;;12.10;;
50301;SDS011;36550;50.472;19.744;2023-04-28T04:29:15;32.00;;;15.80;;
50301;SDS011;36550;50.472;19.744;2023-04-28T04:31:59;42.80;;;18.60;;
50301;SDS011;36550;50.472;19.744;2023-04-28T04:34:43;37.70;;;19.20;;
50301;SDS011;36550;50.472;19.744;2023-04-28T04:37:27;36.30;;;19.20;;
50301;SDS011;36550;50.472;19.744;2023-04-28T04:40:11;30.80;;;17.00;;
50301;SDS011;36550;50.472;19.744;2023-04-28T04:42:55;34.40;;;16.50;;
50301;SDS011;36550;50.472;19.744;2023-04-28T04:45:39;38.70;;;19.90;;
50301;SDS011;36550;50.472;19.744;2023-04-28T04:48:23;39.60;;;21.10;;
50301;SDS011;36550;50.472;19.744;2023-04-28T04:51:08;39.60;;;21.90;;
50301;SDS011;36550;50.472;19.744;2023-04-28T04:53:52;39.00;;;20.80;;
50301;SDS011;36550;50.472;19.744;2023-04-28T04:56:36;38.00;;;19.00;;
50301;SDS011;36550;50.472;19.744;2023-04-28T04:59:21;32.40;;;18.80;;
50301;SDS011;36550;50.472;19.744;2023-04-28T05:02:05;35.70;;;19.80;;
50301;SDS011;36550;50.472;19.744;2023-04-28T05:04:48;30.30;;;17.00;;
50301;SDS011;36550;50.472;19.744;2023-04-28T05:07:33;29.70;;;17.10;;
50301;SDS011;36550;50.472;19.744;2023-04-28T05:10:17;37.90;;;19.10;;
50301;SDS011;36550;50.472;19.744;2023-04-28T05:13:01;39.20;;;19.60;;
50301;SDS011;36550;50.472;19.744;2023-04-28T05:15:46;36.70;;;17.90;;
50301;SDS011;36550;50.472;19.744;2023-04-28T05:18:30;34.20;;;17.10;;
50301;SDS011;36550;50.472;19.744;2023-04-28T05:21:14;32.20;;;16.40;;
50301;SDS011;36550;50.472;19.744;2023-04-28T05:23:58;33.80;;;16.50;;
50301;SDS011;36550;50.472;19.744;2023-04-28T05:26:42;33.20;;;16.20;;
50301;SDS011;36550;50.472;19.744;2023-04-28T05:29:26;29.90;;;16.30;;
50301;SDS011;36550;50.472;19.744;2023-04-28T05:32:10;30.60;;;15.80;;
50301;SDS011;36550;50.472;19.744;2023-04-28T05:34:54;28.90;;;14.90;;
50301;SDS011;36550;50.472;19.744;2023-04-28T05:37:38;30.30;;;14.80;;
50301;SDS011;36550;50.472;19.744;2023-04-28T05:40:22;27.50;;;15.20;;
50301;SDS011;36550;50.472;19.744;2023-04-28T05:43:07;26.60;;;13.20;;
50301;SDS011;36550;50.472;19.744;2023-04-28T05:45:50;22.80;;;11.90;;
50301;SDS011;36550;50.472;19.744;2023-04-28T05:48:34;19.90;;;10.90;;
50301;SDS011;36550;50.472;19.744;2023-04-28T05:51:18;24.00;;;11.40;;
50301;SDS011;36550;50.472;19.744;2023-04-28T05:54:02;25.40;;;12.60;;
50301;SDS011;36550;50.472;19.744;2023-04-28T05:56:46;27.20;;;12.40;;
50301;SDS011;36550;50.472;19.744;2023-04-28T05:59:30;22.20;;;11.20;;
50301;SDS011;36550;50.472;19.744;2023-04-28T06:02:14;24.30;;;11.70;;
50301;SDS011;36550;50.472;19.744;2023-04-28T06:04:59;21.30;;;11.30;;
50301;SDS011;36550;50.472;19.744;2023-04-28T06:07:43;20.90;;;11.60;;
50301;SDS011;36550;50.472;19.744;2023-04-28T06:10:27;21.00;;;11.50;;
50301;SDS011;36550;50.472;19.744;2023-04-28T06:13:11;18.60;;;11.20;;
50301;SDS011;36550;50.472;19.744;2023-04-28T06:15:55;23.50;;;10.90;;
50301;SDS011;36550;50.472;19.744;2023-04-28T06:18:39;19.40;;;11.40;;
50301;SDS011;36550;50.472;19.744;2023-04-28T06:21:23;20.90;;;11.20;;
50301;SDS011;36550;50.472;19.744;2023-04-28T06:24:07;22.90;;;12.00;;
50301;SDS011;36550;50.472;19.744;2023-04-28T06:26:51;19.50;;;11.20;;
50301;SDS011;36550;50.472;19.744;2023-04-28T06:29:35;20.10;;;11.30;;
50301;SDS011;36550;50.472;19.744;2023-04-28T06:32:19;19.50;;;10.60;;
50301;SDS011;36550;50.472;19.744;2023-04-28T06:35:03;18.00;;;10.60;;
50301;SDS011;36550;50.472;19.744;2023-04-28T06:37:47;22.40;;;11.60;;
50301;SDS011;36550;50.472;19.744;2023-04-28T06:40:31;19.50;;;11.20;;
50301;SDS011;36550;50.472;19.744;2023-04-28T06:43:15;19.20;;;11.50;;
50301;SDS011;36550;50.472;19.744;2023-04-28T06:45:59;18.20;;;10.90;;
50301;SDS011;36550;50.472;19.744;2023-04-28T06:48:44;18.20;;;11.70;;
50301;SDS011;36550;50.472;19.744;2023-04-28T06:51:27;18.10;;;11.10;;
50301;SDS011;36550;50.472;19.744;2023-04-28T06:54:11;18.00;;;10.10;;
50301;SDS011;36550;50.472;19.744;2023-04-28T06:56:56;19.00;;;11.50;;
50301;SDS011;36550;50.472;19.744;2023-04-28T06:59:39;21.90;;;11.90;;
50301;SDS011;36550;50.472;19.744;2023-04-28T07:02:26;20.80;;;11.70;;
50301;SDS011;36550;50.472;19.744;2023-04-28T07:05:10;17.50;;;10.70;;
50301;SDS011;36550;50.472;19.744;2023-04-28T07:07:54;19.60;;;11.70;;
50301;SDS011;36550;50.472;19.744;2023-04-28T07:10:38;23.30;;;12.90;;
50301;SDS011;36550;50.472;19.744;2023-04-28T07:13:21;22.90;;;12.00;;
50301;SDS011;36550;50.472;19.744;2023-04-28T07:16:05;18.40;;;11.90;;
50301;SDS011;36550;50.472;19.744;2023-04-28T07:18:49;25.90;;;12.50;;
50301;SDS011;36550;50.472;19.744;2023-04-28T07:21:33;18.30;;;10.90;;
50301;SDS011;36550;50.472;19.744;2023-04-28T07:24:17;20.80;;;12.10;;
50301;SDS011;36550;50.472;19.744;2023-04-28T07:27:01;20.20;;;10.40;;
50301;SDS011;36550;50.472;19.744;2023-04-28T07:29:46;16.40;;;10.40;;
50301;SDS011;36550;50.472;19.744;2023-04-28T07:32:29;13.70;;;8.80;;
50301;SDS011;36550;50.472;19.744;2023-04-28T07:35:14;14.30;;;8.20;;
50301;SDS011;36550;50.472;19.744;2023-04-28T07:37:57;14.40;;;8.40;;
50301;SDS011;36550;50.472;19.744;2023-04-28T07:40:42;14.70;;;7.40;;
50301;SDS011;36550;50.472;19.744;2023-04-28T07:43:26;11.00;;;5.40;;
50301;SDS011;36550;50.472;19.744;2023-04-28T07:46:11;12.00;;;6.80;;
50301;SDS011;36550;50.472;19.744;2023-04-28T07:48:55;11.30;;;7.10;;
50301;SDS011;36550;50.472;19.744;2023-04-28T07:51:39;15.90;;;7.50;;
50301;SDS011;36550;50.472;19.744;2023-04-28T07:54:23;10.00;;;6.40;;
50301;SDS011;36550;50.472;19.744;2023-04-28T07:57:08;10.70;;;4.90;;
50301;SDS011;36550;50.472;19.744;2023-04-28T07:59:53;6.00;;;3.00;;
50301;SDS011;36550;50.472;19.744;2023-04-28T08:02:37;9.10;;;3.00;;
50301;SDS011;36550;50.472;19.744;2023-04-28T08:05:21;8.10;;;2.90;;
50301;SDS011;36550;50.472;19.744;2023-04-28T08:08:05;6.10;;;3.20;;
50301;SDS011;36550;50.472;19.744;2023-04-28T08:10:49;7.60;;;2.90;;
50301;SDS011;36550;50.472;19.744;2023-04-28T08:13:33;8.20;;;2.70;;
50301;SDS011;36550;50.472;19.744;2023-04-28T08:16:17;6.10;;;2.90;;
50301;SDS011;36550;50.472;19.744;2023-04-28T08:19:02;7.90;;;2.60;;
50301;SDS011;36550;50.472;19.744;2023-04-28T08:21:46;6.60;;;2.50;;
50301;SDS011;36550;50.472;19.744;2023-04-28T08:24:30;5.00;;;2.50;;
50301;SDS011;36550;50.472;19.744;2023-04-28T08:27:17;6.90;;;3.00;;
50301;SDS011;36550;50.472;19.744;2023-04-28T08:30:01;6.10;;;2.80;;
50301;SDS011;36550;50.472;19.744;2023-04-28T08:32:45;8.00;;;2.50;;
50301;SDS011;36550;50.472;19.744;2023-04-28T08:35:29;10.90;;;2.70;;
50301;SDS011;36550;50.472;19.744;2023-04-28T08:38:13;4.20;;;2.60;;
50301;SDS011;36550;50.472;19.744;2023-04-28T08:40:58;7.20;;;2.80;;
50301;SDS011;36550;50.472;19.744;2023-04-28T08:43:41;6.70;;;3.00;;
50301;SDS011;36550;50.472;19.744;2023-04-28T08:46:26;7.40;;;3.10;;
50301;SDS011;36550;50.472;19.744;2023-04-28T08:49:13;9.00;;;2.90;;
50301;SDS011;36550;50.472;19.744;2023-04-28T08:51:59;8.10;;;2.90;;
50301;SDS011;36550;50.472;19.744;2023-04-28T08:54:43;4.70;;;2.90;;
50301;SDS011;36550;50.472;19.744;2023-04-28T08:57:35;6.70;;;2.80;;
50301;SDS011;36550;50.472;19.744;2023-04-28T09:00:21;4.80;;;2.30;;
50301;SDS011;36550;50.472;19.744;2023-04-28T09:03:07;4.90;;;2.30;;
50301;SDS011;36550;50.472;19.744;2023-04-28T09:05:51;8.60;;;2.70;;
50301;SDS011;36550;50.472;19.744;2023-04-28T09:08:35;5.80;;;2.60;;
50301;SDS011;36550;50.472;19.744;2023-04-28T09:11:19;6.00;;;3.00;;
50301;SDS011;36550;50.472;19.744;2023-04-28T09:14:12;11.70;;;2.80;;
50301;SDS011;36550;50.472;19.744;2023-04-28T09:16:56;6.30;;;2.70;;
50301;SDS011;36550;50.472;19.744;2023-04-28T09:19:41;4.30;;;2.40;;
50301;SDS011;36550;50.472;19.744;2023-04-28T09:22:28;4.60;;;2.50;;
50301;SDS011;36550;50.472;19.744;2023-04-28T09:25:12;4.80;;;2.30;;
50301;SDS011;36550;50.472;19.744;2023-04-28T09:27:56;5.40;;;2.60;;
50301;SDS011;36550;50.472;19.744;2023-04-28T09:30:40;4.20;;;2.20;;
50301;SDS011;36550;50.472;19.744;2023-04-28T09:33:25;6.30;;;2.60;;
50301;SDS011;36550;50.472;19.744;2023-04-28T09:36:09;5.20;;;3.20;;
50301;SDS011;36550;50.472;19.744;2023-04-28T09:38:54;7.20;;;2.60;;
50301;SDS011;36550;50.472;19.744;2023-04-28T09:41:42;5.60;;;2.80;;
50301;SDS011;36550;50.472;19.744;2023-04-28T09:47:20;5.20;;;2.70;;
50301;SDS011;36550;50.472;19.744;2023-04-28T09:50:06;5.30;;;2.60;;
50301;SDS011;36550;50.472;19.744;2023-04-28T09:52:55;4.90;;;2.80;;
50301;SDS011;36550;50.472;19.744;2023-04-28T09:55:40;6.80;;;2.50;;
50301;SDS011;36550;50.472;19.744;2023-04-28T09:58:27;7.80;;;2.60;;
50301;SDS011;36550;50.472;19.744;2023-04-28T10:01:12;5.60;;;3.20;;
50301;SDS011;36550;50.472;19.744;2023-04-28T10:03:57;5.30;;;2.90;;
50301;SDS011;36550;50.472;19.744;2023-04-28T10:06:42;6.80;;;3.00;;
50301;SDS011;36550;50.472;19.744;2023-04-28T10:09:27;6.80;;;2.30;;
50301;SDS011;36550;50.472;19.744;2023-04-28T10:12:11;9.30;;;2.60;;
50301;SDS011;36550;50.472;19.744;2023-04-28T10:14:56;7.20;;;2.90;;
50301;SDS011;36550;50.472;19.744;2023-04-28T10:17:40;5.90;;;2.70;;
50301;SDS011;36550;50.472;19.744;2023-04-28T10:20:25;4.70;;;2.70;;
50301;SDS011;36550;50.472;19.744;2023-04-28T10:33:22;6.20;;;2.90;;
50301;SDS011;36550;50.472;19.744;2023-04-28T10:36:09;9.20;;;2.90;;
50301;SDS011;36550;50.472;19.744;2023-04-28T10:39:09;5.30;;;3.30;;
50301;SDS011;36550;50.472;19.744;2023-04-28T10:41:57;4.70;;;2.90;;
50301;SDS011;36550;50.472;19.744;2023-04-28T10:44:41;9.20;;;3.40;;
50301;SDS011;36550;50.472;19.744;2023-04-28T10:47:26;12.00;;;3.60;;
50301;SDS011;36550;50.472;19.744;2023-04-28T10:50:10;7.30;;;2.90;;
50301;SDS011;36550;50.472;19.744;2023-04-28T10:52:54;6.30;;;2.70;;
50301;SDS011;36550;50.472;19.744;2023-04-28T10:55:38;7.40;;;3.20;;
50301;SDS011;36550;50.472;19.744;2023-04-28T11:04:05;7.00;;;3.70;;
50301;SDS011;36550;50.472;19.744;2023-04-28T11:07:09;7.00;;;3.00;;
50301;SDS011;36550;50.472;19.744;2023-04-28T11:09:54;8.10;;;3.30;;
50301;SDS011;36550;50.472;19.744;2023-04-28T11:13:14;7.30;;;3.50;;
50301;SDS011;36550;50.472;19.744;2023-04-28T11:16:04;10.30;;;2.90;;
50301;SDS011;36550;50.472;19.744;2023-04-28T11:18:50;4.90;;;2.90;;
50301;SDS011;36550;50.472;19.744;2023-04-28T11:21:36;5.60;;;2.90;;
50301;SDS011;36550;50.472;19.744;2023-04-28T11:24:22;6.10;;;3.30;;
50301;SDS011;36550;50.472;19.744;2023-04-28T11:27:09;6.60;;;3.00;;
50301;SDS011;36550;50.472;19.744;2023-04-28T11:29:54;6.50;;;2.80;;
50301;SDS011;36550;50.472;19.744;2023-04-28T11:32:38;5.30;;;2.80;;
50301;SDS011;36550;50.472;19.744;2023-04-28T11:35:24;8.20;;;3.60;;
50301;SDS011;36550;50.472;19.744;2023-04-28T11:38:08;5.20;;;2.80;;
50301;SDS011;36550;50.472;19.744;2023-04-28T11:40:55;7.70;;;2.90;;
50301;SDS011;36550;50.472;19.744;2023-04-28T11:43:40;10.40;;;3.50;;
50301;SDS011;36550;50.472;19.744;2023-04-28T11:46:24;8.70;;;2.80;;
50301;SDS011;36550;50.472;19.744;2023-04-28T11:49:09;5.80;;;2.70;;
50301;SDS011;36550;50.472;19.744;2023-04-28T11:51:53;7.10;;;2.70;;
50301;SDS011;36550;50.472;19.744;2023-04-28T11:54:39;5.60;;;2.70;;
50301;SDS011;36550;50.472;19.744;2023-04-28T11:57:25;6.30;;;3.00;;
50301;SDS011;36550;50.472;19.744;2023-04-28T12:00:10;6.40;;;2.80;;
50301;SDS011;36550;50.472;19.744;2023-04-28T12:02:56;5.70;;;3.30;;
50301;SDS011;36550;50.472;19.744;2023-04-28T12:05:44;8.60;;;3.20;;
50301;SDS011;36550;50.472;19.744;2023-04-28T12:08:28;5.50;;;2.60;;
50301;SDS011;36550;50.472;19.744;2023-04-28T12:11:12;5.50;;;3.10;;
50301;SDS011;36550;50.472;19.744;2023-04-28T12:14:06;5.10;;;3.30;;
50301;SDS011;36550;50.472;19.744;2023-04-28T12:16:51;7.90;;;3.00;;
50301;SDS011;36550;50.472;19.744;2023-04-28T12:19:44;7.00;;;3.00;;
50301;SDS011;36550;50.472;19.744;2023-04-28T12:22:28;8.00;;;3.60;;
50301;SDS011;36550;50.472;19.744;2023-04-28T12:25:14;5.70;;;2.60;;
50301;SDS011;36550;50.472;19.744;2023-04-28T12:28:08;9.70;;;3.30;;
50301;SDS011;36550;50.472;19.744;2023-04-28T12:31:02;8.20;;;3.40;;
50301;SDS011;36550;50.472;19.744;2023-04-28T12:33:47;6.90;;;2.90;;
50301;SDS011;36550;50.472;19.744;2023-04-28T12:36:30;8.50;;;3.30;;
50301;SDS011;36550;50.472;19.744;2023-04-28T12:39:15;9.10;;;3.00;;
50301;SDS011;36550;50.472;19.744;2023-04-28T12:42:00;9.80;;;3.00;;
50301;SDS011;36550;50.472;19.744;2023-04-28T12:44:47;7.90;;;2.60;;
50301;SDS011;36550;50.472;19.744;2023-04-28T12:47:30;5.20;;;2.80;;
50301;SDS011;36550;50.472;19.744;2023-04-28T12:50:14;6.70;;;3.20;;
50301;SDS011;36550;50.472;19.744;2023-04-28T12:52:58;7.40;;;2.80;;
50301;SDS011;36550;50.472;19.744;2023-04-28T12:55:42;5.90;;;2.80;;
50301;SDS011;36550;50.472;19.744;2023-04-28T12:58:26;6.60;;;2.90;;
50301;SDS011;36550;50.472;19.744;2023-04-28T13:01:10;9.00;;;2.90;;
50301;SDS011;36550;50.472;19.744;2023-04-28T13:03:55;7.10;;;2.90;;
50301;SDS011;36550;50.472;19.744;2023-04-28T13:06:39;6.70;;;2.40;;
50301;SDS011;36550;50.472;19.744;2023-04-28T13:09:26;4.20;;;2.40;;
50301;SDS011;36550;50.472;19.744;2023-04-28T13:12:11;7.10;;;2.60;;
50301;SDS011;36550;50.472;19.744;2023-04-28T13:14:55;6.20;;;2.60;;
50301;SDS011;36550;50.472;19.744;2023-04-28T13:17:38;5.40;;;2.80;;
50301;SDS011;36550;50.472;19.744;2023-04-28T13:20:23;8.30;;;2.90;;
50301;SDS011;36550;50.472;19.744;2023-04-28T13:23:06;9.10;;;2.90;;
50301;SDS011;36550;50.472;19.744;2023-04-28T13:25:50;5.20;;;2.80;;
50301;SDS011;36550;50.472;19.744;2023-04-28T13:28:35;9.20;;;2.20;;
50301;SDS011;36550;50.472;19.744;2023-04-28T13:31:19;8.20;;;2.80;;
50301;SDS011;36550;50.472;19.744;2023-04-28T13:34:03;7.10;;;2.80;;
50301;SDS011;36550;50.472;19.744;2023-04-28T13:36:48;6.50;;;2.90;;
50301;SDS011;36550;50.472;19.744;2023-04-28T13:39:33;10.00;;;3.10;;
50301;SDS011;36550;50.472;19.744;2023-04-28T13:42:17;7.30;;;2.90;;
50301;SDS011;36550;50.472;19.744;2023-04-28T13:45:01;7.10;;;2.50;;
50301;SDS011;36550;50.472;19.744;2023-04-28T13:47:46;6.10;;;3.30;;
50301;SDS011;36550;50.472;19.744;2023-04-28T13:50:33;6.40;;;2.60;;
50301;SDS011;36550;50.472;19.744;2023-04-28T13:53:17;5.00;;;2.50;;
50301;SDS011;36550;50.472;19.744;2023-04-28T13:56:01;5.60;;;2.50;;
50301;SDS011;36550;50.472;19.744;2023-04-28T13:58:45;5.60;;;2.30;;
50301;SDS011;36550;50.472;19.744;2023-04-28T14:01:29;6.70;;;2.30;;
50301;SDS011;36550;50.472;19.744;2023-04-28T14:04:12;7.40;;;2.70;;
50301;SDS011;36550;50.472;19.744;2023-04-28T14:06:57;10.00;;;2.60;;
50301;SDS011;36550;50.472;19.744;2023-04-28T14:09:40;5.60;;;2.50;;
50301;SDS011;36550;50.472;19.744;2023-04-28T14:12:24;4.50;;;2.40;;
50301;SDS011;36550;50.472;19.744;2023-04-28T14:15:09;6.00;;;2.30;;
50301;SDS011;36550;50.472;19.744;2023-04-28T14:17:53;6.00;;;2.30;;
50301;SDS011;36550;50.472;19.744;2023-04-28T14:20:37;5.30;;;2.30;;
50301;SDS011;36550;50.472;19.744;2023-04-28T14:23:21;4.40;;;2.30;;
50301;SDS011;36550;50.472;19.744;2023-04-28T14:26:05;5.40;;;2.50;;
50301;SDS011;36550;50.472;19.744;2023-04-28T14:28:49;9.20;;;2.80;;
50301;SDS011;36550;50.472;19.744;2023-04-28T14:31:33;6.00;;;2.00;;
50301;SDS011;36550;50.472;19.744;2023-04-28T14:34:18;8.00;;;2.40;;
50301;SDS011;36550;50.472;19.744;2023-04-28T14:37:01;4.50;;;2.40;;
50301;SDS011;36550;50.472;19.744;2023-04-28T14:39:47;7.00;;;2.60;;
50301;SDS011;36550;50.472;19.744;2023-04-28T14:42:32;6.90;;;2.30;;
50301;SDS011;36550;50.472;19.744;2023-04-28T14:45:19;5.40;;;2.40;;
50301;SDS011;36550;50.472;19.744;2023-04-28T14:48:03;7.10;;;3.50;;
50301;SDS011;36550;50.472;19.744;2023-04-28T14:50:49;5.50;;;2.50;;
50301;SDS011;36550;50.472;19.744;2023-04-28T14:53:34;7.00;;;3.20;;
50301;SDS011;36550;50.472;19.744;2023-04-28T14:56:18;8.10;;;3.20;;
50301;SDS011;36550;50.472;19.744;2023-04-28T14:59:03;7.00;;;2.90;;
50301;SDS011;36550;50.472;19.744;2023-04-28T15:01:47;7.10;;;4.00;;
50301;SDS011;36550;50.472;19.744;2023-04-28T15:07:16;9.50;;;3.30;;
50301;SDS011;36550;50.472;19.744;2023-04-28T15:10:00;10.60;;;3.60;;
50301;SDS011;36550;50.472;19.744;2023-04-28T15:12:44;9.40;;;3.80;;
50301;SDS011;36550;50.472;19.744;2023-04-28T15:15:28;9.90;;;3.00;;
50301;SDS011;36550;50.472;19.744;2023-04-28T15:18:12;7.90;;;3.60;;
50301;SDS011;36550;50.472;19.744;2023-04-28T15:20:55;8.30;;;3.40;;
50301;SDS011;36550;50.472;19.744;2023-04-28T15:23:39;7.00;;;3.30;;
50301;SDS011;36550;50.472;19.744;2023-04-28T15:26:23;6.90;;;3.20;;
50301;SDS011;36550;50.472;19.744;2023-04-28T15:29:08;9.10;;;3.90;;
50301;SDS011;36550;50.472;19.744;2023-04-28T15:31:52;8.50;;;3.80;;
50301;SDS011;36550;50.472;19.744;2023-04-28T15:34:36;8.10;;;3.70;;
50301;SDS011;36550;50.472;19.744;2023-04-28T15:37:37;5.80;;;3.60;;
50301;SDS011;36550;50.472;19.744;2023-04-28T15:40:22;5.20;;;3.70;;
50301;SDS011;36550;50.472;19.744;2023-04-28T15:43:06;8.70;;;4.50;;
50301;SDS011;36550;50.472;19.744;2023-04-28T15:45:51;7.40;;;3.90;;
50301;SDS011;36550;50.472;19.744;2023-04-28T15:48:35;9.20;;;4.00;;
50301;SDS011;36550;50.472;19.744;2023-04-28T15:51:22;11.30;;;4.50;;
50301;SDS011;36550;50.472;19.744;2023-04-28T15:54:07;9.40;;;4.40;;
50301;SDS011;36550;50.472;19.744;2023-04-28T15:56:51;8.80;;;5.00;;
50301;SDS011;36550;50.472;19.744;2023-04-28T15:59:34;10.90;;;5.50;;
50301;SDS011;36550;50.472;19.744;2023-04-28T16:02:20;13.70;;;7.90;;
50301;SDS011;36550;50.472;19.744;2023-04-28T16:05:04;12.90;;;6.90;;
50301;SDS011;36550;50.472;19.744;2023-04-28T16:07:48;12.40;;;6.30;;
50301;SDS011;36550;50.472;19.744;2023-04-28T16:10:33;11.30;;;7.00;;
50301;SDS011;36550;50.472;19.744;2023-04-28T16:13:17;11.90;;;6.20;;
50301;SDS011;36550;50.472;19.744;2023-04-28T16:16:01;12.30;;;6.20;;
50301;SDS011;36550;50.472;19.744;2023-04-28T16:18:46;12.70;;;6.60;;
50301;SDS011;36550;50.472;19.744;2023-04-28T16:21:30;14.10;;;6.40;;
50301;SDS011;36550;50.472;19.744;2023-04-28T16:24:15;20.70;;;11.70;;